Time;durP1;ratioP1;P1;durP2;ratioP2;P2;SDS_P1;SDS_P2;PMS_P1;PMS_P2;Temp;Humidity;BMP_temperature;BMP_pressure;BME280_temperature;BME280_humidity;BME280_pressure;Samples;Min_cycle;Max_cycle;Signal;HPM_P1;HPM_P2
2020/12/06 00:02:09;;;;;;;54.03;20.80;;;4.30;82.90;;;;;;5049239;28;20082;-64
2020/12/06 00:04:34;;;;;;;64.22;21.95;;;4.30;82.80;;;;;;5050528;28;20044;-66
2020/12/06 00:07:00;;;;;;;70.85;25.05;;;4.30;82.80;;;;;;5050881;28;20029;-64
2020/12/06 00:09:25;;;;;;;44.95;21.38;;;4.30;82.80;;;;;;5046539;28;20036;-66
2020/12/06 00:11:56;;;;;;;41.85;19.80;;;4.30;82.90;;;;;;5025847;28;20037;-64
2020/12/06 00:14:22;;;;;;;44.22;19.08;;;4.30;83.10;;;;;;5030200;28;20036;-64
2020/12/06 00:16:48;;;;;;;48.20;19.05;;;4.30;83.10;;;;;;5050778;28;20041;-64
2020/12/06 00:19:14;;;;;;;41.35;17.92;;;4.20;83.00;;;;;;5049061;28;20041;-64
2020/12/06 00:21:40;;;;;;;45.15;16.88;;;4.20;83.00;;;;;;5049155;28;20449;-64
2020/12/06 00:24:05;;;;;;;46.70;18.33;;;4.20;82.90;;;;;;5049680;28;20033;-64
2020/12/06 00:26:33;;;;;;;39.30;16.50;;;4.20;82.80;;;;;;5046439;28;20025;-63
2020/12/06 00:28:59;;;;;;;41.63;16.30;;;4.20;82.90;;;;;;5047727;28;20333;-63
2020/12/06 00:31:25;;;;;;;26.38;15.55;;;4.20;82.90;;;;;;5048530;28;20040;-63
2020/12/06 00:33:50;;;;;;;33.03;18.88;;;4.10;83.00;;;;;;5050334;28;20040;-65
2020/12/06 00:36:16;;;;;;;39.63;20.02;;;4.10;83.10;;;;;;5048663;28;20033;-64
2020/12/06 00:38:42;;;;;;;41.75;18.75;;;4.10;83.20;;;;;;5031562;28;20033;-64
2020/12/06 00:41:13;;;;;;;35.28;17.48;;;4.20;83.20;;;;;;5046585;28;20082;-63
2020/12/06 00:43:39;;;;;;;26.40;14.77;;;4.10;83.20;;;;;;5049518;28;20029;-64
2020/12/06 00:46:06;;;;;;;30.23;16.67;;;4.10;83.10;;;;;;5048680;28;20043;-63
2020/12/06 00:48:31;;;;;;;31.20;16.27;;;4.10;83.20;;;;;;5029992;28;20119;-64
2020/12/06 00:50:57;;;;;;;35.70;16.27;;;4.10;83.30;;;;;;5046817;28;20171;-64
2020/12/06 00:53:23;;;;;;;34.20;17.10;;;4.10;83.30;;;;;;5050014;28;20037;-64
2020/12/06 00:55:49;;;;;;;29.75;16.27;;;4.10;83.30;;;;;;5049337;28;20037;-64
2020/12/06 00:58:14;;;;;;;28.85;16.23;;;4.10;83.30;;;;;;5046773;28;20040;-64
2020/12/06 01:00:40;;;;;;;28.45;15.70;;;4.20;83.30;;;;;;5045747;28;20044;-63
2020/12/06 01:03:06;;;;;;;25.92;15.52;;;4.20;83.30;;;;;;5038815;28;20057;-65
2020/12/06 01:05:32;;;;;;;35.35;16.77;;;4.20;83.30;;;;;;5041808;28;20037;-65
2020/12/06 01:08:00;;;;;;;29.80;16.38;;;4.20;83.20;;;;;;5047585;28;20040;-64
2020/12/06 01:10:28;;;;;;;26.02;15.45;;;4.30;83.10;;;;;;5043665;28;20521;-64
2020/12/06 01:12:53;;;;;;;27.90;16.10;;;4.30;83.00;;;;;;5047555;28;20040;-63
2020/12/06 01:15:19;;;;;;;32.63;16.35;;;4.30;82.90;;;;;;5046734;28;20045;-64
2020/12/06 01:17:45;;;;;;;25.95;15.45;;;4.30;83.00;;;;;;5030395;28;20037;-66
2020/12/06 01:20:11;;;;;;;112.10;18.38;;;4.30;82.90;;;;;;5049223;28;20060;-66
2020/12/06 01:22:37;;;;;;;32.40;17.08;;;4.30;82.80;;;;;;5042990;28;20515;-66
2020/12/06 01:25:05;;;;;;;28.30;15.93;;;4.30;82.80;;;;;;5049418;28;20060;-66
2020/12/06 01:27:31;;;;;;;53.20;18.42;;;4.30;82.80;;;;;;5031213;28;20033;-66
2020/12/06 01:29:56;;;;;;;36.10;19.85;;;4.30;82.80;;;;;;5044080;28;20411;-66
2020/12/06 01:32:22;;;;;;;34.72;18.65;;;4.30;82.80;;;;;;5045022;28;20032;-66
2020/12/06 01:34:50;;;;;;;35.20;18.42;;;4.30;82.80;;;;;;5048101;28;20033;-66
2020/12/06 01:37:16;;;;;;;38.58;18.33;;;4.40;83.00;;;;;;5049096;28;20112;-65
2020/12/06 01:39:42;;;;;;;54.30;17.25;;;4.40;82.90;;;;;;5048302;28;20120;-66
2020/12/06 01:42:07;;;;;;;68.30;18.60;;;4.40;82.80;;;;;;5044036;28;20045;-66
2020/12/06 01:44:33;;;;;;;44.90;17.73;;;4.40;82.60;;;;;;5047844;28;20033;-66
2020/12/06 01:46:59;;;;;;;47.60;18.27;;;4.40;82.60;;;;;;5030836;28;20157;-66
2020/12/06 01:49:35;;;;;;;89.10;19.88;;;4.40;82.60;;;;;;5046596;28;20032;-66
2020/12/06 01:52:05;;;;;;;41.38;17.33;;;4.30;82.50;;;;;;5036170;28;20040;-65
2020/12/06 01:54:31;;;;;;;47.05;17.80;;;4.30;82.50;;;;;;5044873;28;20033;-66
2020/12/06 01:56:57;;;;;;;57.47;17.95;;;4.30;82.50;;;;;;5030701;28;20025;-66
2020/12/06 01:59:22;;;;;;;61.10;17.08;;;4.30;82.60;;;;;;5046155;28;20037;-67
2020/12/06 02:01:57;;;;;;;60.15;18.55;;;4.30;82.60;;;;;;5031772;28;20064;-66
2020/12/06 02:04:27;;;;;;;41.00;17.77;;;4.20;82.60;;;;;;5040937;28;20032;-66
2020/12/06 02:06:57;;;;;;;34.53;16.00;;;4.20;82.80;;;;;;5046690;28;20089;-66
2020/12/06 02:09:24;;;;;;;26.00;15.43;;;4.20;82.80;;;;;;5045691;28;20031;-66
2020/12/06 02:11:50;;;;;;;32.90;16.73;;;4.20;82.90;;;;;;5069448;22;20048;-68
2020/12/06 02:14:16;;;;;;;30.95;16.52;;;4.20;83.00;;;;;;5060813;28;20033;-68
2020/12/06 02:16:42;;;;;;;29.88;16.73;;;4.30;83.10;;;;;;5050000;28;20111;-68
2020/12/06 02:19:09;;;;;;;35.67;18.48;;;4.30;83.00;;;;;;5053801;28;20496;-67
2020/12/06 02:21:38;;;;;;;60.35;18.13;;;4.30;83.00;;;;;;5049819;28;20596;-67
2020/12/06 02:24:04;;;;;;;95.03;20.02;;;4.30;82.90;;;;;;5060623;28;20738;-66
2020/12/06 02:26:37;;;;;;;55.60;18.80;;;4.30;82.80;;;;;;5069534;28;20113;-68
2020/12/06 02:29:02;;;;;;;37.22;16.67;;;4.30;82.70;;;;;;5067578;28;20518;-68
2020/12/06 02:31:28;;;;;;;84.20;19.60;;;4.30;82.60;;;;;;5066932;28;20124;-65
2020/12/06 02:33:53;;;;;;;46.92;16.88;;;4.30;82.50;;;;;;5068118;28;20085;-68
2020/12/06 02:36:19;;;;;;;69.22;17.95;;;4.30;82.50;;;;;;5068463;28;20495;-67
2020/12/06 02:38:49;;;;;;;104.55;19.25;;;4.30;82.50;;;;;;5068796;28;20033;-68
2020/12/06 02:41:14;;;;;;;126.88;20.23;;;4.30;82.50;;;;;;5066286;28;20033;-67
2020/12/06 02:43:40;;;;;;;153.70;20.45;;;4.30;82.50;;;;;;5064633;28;20036;-68
2020/12/06 02:46:06;;;;;;;52.65;17.40;;;4.30;82.60;;;;;;5067966;28;20036;-68
2020/12/06 02:48:31;;;;;;;38.30;17.75;;;4.30;82.60;;;;;;5068592;28;20119;-67
2020/12/06 02:50:57;;;;;;;52.00;19.23;;;4.20;82.70;;;;;;5067791;28;20039;-67
2020/12/06 02:53:23;;;;;;;50.63;17.88;;;4.20;82.80;;;;;;5069924;28;20158;-67
2020/12/06 02:55:48;;;;;;;73.43;20.00;;;4.20;82.80;;;;;;5068325;28;20041;-67
2020/12/06 02:58:14;;;;;;;81.45;19.92;;;4.20;82.80;;;;;;5062928;28;20161;-67
2020/12/06 03:00:39;;;;;;;45.97;19.05;;;4.20;82.80;;;;;;5063473;28;20538;-67
2020/12/06 03:03:05;;;;;;;47.17;18.00;;;4.20;82.80;;;;;;5066905;28;20039;-67
2020/12/06 03:05:31;;;;;;;39.80;18.27;;;4.30;82.90;;;;;;5049994;28;20116;-68
2020/12/06 03:07:56;;;;;;;47.65;18.35;;;4.30;82.90;;;;;;5059034;28;20036;-68
2020/12/06 03:10:22;;;;;;;65.80;18.02;;;4.20;82.80;;;;;;5066258;28;21785;-68
2020/12/06 03:12:47;;;;;;;51.83;18.48;;;4.20;82.90;;;;;;5067861;28;20059;-68
2020/12/06 03:15:13;;;;;;;59.42;17.95;;;4.20;82.90;;;;;;5059938;28;20404;-67
2020/12/06 03:17:39;;;;;;;62.03;18.00;;;4.20;82.90;;;;;;5069302;28;20024;-68
2020/12/06 03:20:04;;;;;;;99.75;19.52;;;4.20;82.80;;;;;;5068066;28;20033;-68
2020/12/06 03:22:32;;;;;;;84.35;22.13;;;4.20;82.80;;;;;;5066821;28;20550;-68
2020/12/06 03:24:59;;;;;;;90.03;19.58;;;4.20;82.80;;;;;;5067816;28;20036;-68
2020/12/06 03:27:25;;;;;;;61.50;18.27;;;4.10;82.80;;;;;;5069318;28;20068;-68
2020/12/06 03:29:51;;;;;;;149.75;20.13;;;4.10;82.80;;;;;;5053858;28;20037;-68
2020/12/06 03:32:16;;;;;;;41.47;16.50;;;4.10;83.00;;;;;;5060814;28;20025;-68
2020/12/06 03:34:42;;;;;;;97.65;17.90;;;4.00;83.00;;;;;;5057753;28;20395;-67
2020/12/06 03:37:08;;;;;;;58.70;17.02;;;4.00;83.30;;;;;;5068202;28;20075;-68
2020/12/06 03:39:33;;;;;;;36.10;15.45;;;3.90;83.30;;;;;;5066469;28;20033;-68
2020/12/06 03:41:59;;;;;;;40.05;16.25;;;3.90;83.50;;;;;;5056882;28;20033;-67
2020/12/06 03:44:24;;;;;;;44.40;16.65;;;3.90;83.70;;;;;;5060511;28;20037;-68
2020/12/06 03:46:50;;;;;;;44.03;17.13;;;3.90;83.80;;;;;;5058040;28;20041;-68
2020/12/06 03:49:15;;;;;;;39.22;16.38;;;4.00;83.90;;;;;;5065633;28;20086;-68
2020/12/06 03:51:41;;;;;;;46.28;16.75;;;4.00;84.00;;;;;;5067913;28;20035;-67
2020/12/06 03:54:06;;;;;;;51.47;16.13;;;4.00;83.90;;;;;;5067021;28;20487;-67
2020/12/06 03:56:32;;;;;;;59.10;17.30;;;4.10;83.90;;;;;;5064802;28;20052;-68
2020/12/06 03:58:58;;;;;;;41.83;16.08;;;4.10;83.70;;;;;;5068075;28;20040;-67
2020/12/06 04:01:23;;;;;;;81.45;17.35;;;4.10;83.60;;;;;;5062365;28;20063;-67
2020/12/06 04:03:49;;;;;;;67.38;16.50;;;4.10;83.50;;;;;;5068083;28;20115;-67
2020/12/06 04:06:14;;;;;;;40.13;17.00;;;4.10;83.50;;;;;;5066828;28;20500;-68
2020/12/06 04:08:40;;;;;;;40.88;17.20;;;4.10;83.50;;;;;;5064849;28;20633;-68
2020/12/06 04:11:06;;;;;;;49.15;16.63;;;4.10;83.70;;;;;;5059688;28;20041;-68
2020/12/06 04:13:32;;;;;;;53.22;16.88;;;4.10;83.70;;;;;;5062590;28;20025;-68
2020/12/06 04:15:58;;;;;;;52.50;17.35;;;4.20;83.70;;;;;;5068769;28;20082;-68
2020/12/06 04:18:24;;;;;;;42.55;16.77;;;4.20;83.70;;;;;;5065390;28;20515;-68
2020/12/06 04:20:49;;;;;;;76.35;18.05;;;4.20;83.60;;;;;;5066779;28;20039;-68
2020/12/06 04:23:15;;;;;;;92.15;18.10;;;4.20;83.60;;;;;;5059816;28;20060;-67
2020/12/06 04:25:41;;;;;;;129.90;19.55;;;4.20;83.50;;;;;;5053609;28;20135;-66
2020/12/06 04:28:10;;;;;;;70.63;18.23;;;4.30;83.40;;;;;;5065346;28;20041;-68
2020/12/06 04:30:41;;;;;;;71.35;16.75;;;4.30;83.30;;;;;;5070126;28;20040;-68
2020/12/06 04:33:06;;;;;;;100.03;21.08;;;4.30;83.20;;;;;;5071959;28;20033;-68
2020/12/06 04:35:32;;;;;;;141.57;19.73;;;4.30;83.20;;;;;;5070266;28;20046;-68
2020/12/06 04:37:58;;;;;;;64.75;18.63;;;4.30;83.10;;;;;;5070493;28;20071;-68
2020/12/06 04:40:23;;;;;;;47.92;17.50;;;4.20;82.90;;;;;;5063810;28;20041;-68
2020/12/06 04:42:49;;;;;;;100.65;19.40;;;4.20;83.00;;;;;;5067205;28;20045;-68
2020/12/06 04:45:14;;;;;;;52.47;17.60;;;4.30;83.20;;;;;;5071347;28;20032;-67
2020/12/06 04:47:54;;;;;;;48.53;16.02;;;4.30;83.20;;;;;;5070902;28;20037;-69
2020/12/06 04:50:26;;;;;;;58.35;15.85;;;4.30;83.30;;;;;;5071080;28;20090;-68
2020/12/06 04:52:59;;;;;;;67.85;17.50;;;4.20;83.20;;;;;;5071564;28;20040;-68
2020/12/06 04:55:27;;;;;;;56.15;17.35;;;4.30;83.20;;;;;;5071836;28;20511;-68
2020/12/06 04:57:55;;;;;;;70.43;16.65;;;4.30;83.00;;;;;;5067760;28;20503;-67
2020/12/06 05:00:34;;;;;;;42.58;15.63;;;4.30;83.10;;;;;;5063086;28;20203;-69
2020/12/06 05:03:01;;;;;;;34.38;14.32;;;4.20;83.00;;;;;;5057296;28;20148;-68
2020/12/06 05:05:34;;;;;;;48.22;15.82;;;4.20;83.10;;;;;;5069506;28;20037;-68
2020/12/06 05:08:11;;;;;;;54.25;15.40;;;4.30;84.20;;;;;;5069237;28;20048;-68
2020/12/06 05:10:48;;;;;;;52.40;16.50;;;4.20;83.30;;;;;;5066085;28;20033;-67
2020/12/06 05:13:15;;;;;;;52.92;16.13;;;4.20;83.20;;;;;;5063117;28;20025;-67
2020/12/06 05:15:42;;;;;;;35.70;14.68;;;4.20;83.20;;;;;;5067521;28;20039;-68
2020/12/06 05:18:07;;;;;;;38.83;15.07;;;4.20;83.20;;;;;;5069810;28;20025;-68
2020/12/06 05:20:34;;;;;;;53.17;15.27;;;4.20;83.30;;;;;;5068583;28;20090;-68
2020/12/06 05:22:59;;;;;;;55.05;15.23;;;4.20;83.30;;;;;;5068391;28;20051;-68
2020/12/06 05:25:25;;;;;;;40.20;14.18;;;4.20;83.30;;;;;;5070190;28;20037;-68
2020/12/06 05:27:51;;;;;;;46.22;14.00;;;4.20;83.30;;;;;;5070397;28;20617;-68
2020/12/06 05:30:18;;;;;;;39.80;14.55;;;4.20;83.30;;;;;;5069218;28;20099;-68
2020/12/06 05:32:44;;;;;;;55.90;14.57;;;4.20;83.30;;;;;;5067949;28;20036;-68
2020/12/06 05:35:11;;;;;;;37.50;14.93;;;4.20;83.30;;;;;;5067362;28;20090;-68
2020/12/06 05:37:38;;;;;;;39.00;13.63;;;4.10;83.30;;;;;;5063317;28;20026;-68
2020/12/06 05:40:12;;;;;;;35.45;15.65;;;4.10;83.40;;;;;;5064301;28;20064;-68
2020/12/06 05:42:40;;;;;;;35.67;15.93;;;4.10;83.50;;;;;;5055872;28;20084;-68
2020/12/06 05:45:06;;;;;;;45.83;15.88;;;4.20;83.50;;;;;;5068031;28;20043;-67
2020/12/06 05:47:32;;;;;;;38.58;15.93;;;4.20;83.50;;;;;;5069151;28;20403;-68
2020/12/06 05:49:58;;;;;;;41.60;15.27;;;4.20;83.50;;;;;;5050826;28;20037;-68
2020/12/06 05:52:26;;;;;;;96.88;31.70;;;4.20;83.50;;;;;;5068117;28;20043;-68
2020/12/06 05:54:55;;;;;;;126.47;41.78;;;4.20;83.50;;;;;;5070870;28;20503;-68
2020/12/06 05:57:31;;;;;;;39.58;17.80;;;4.20;83.50;;;;;;5070753;28;20025;-68
2020/12/06 06:00:01;;;;;;;33.30;14.88;;;4.20;83.50;;;;;;5068408;28;20048;-68
2020/12/06 06:02:27;;;;;;;38.15;15.48;;;4.20;83.40;;;;;;5066753;28;20043;-68
2020/12/06 06:05:01;;;;;;;34.92;14.82;;;4.20;83.30;;;;;;5069517;28;20032;-68
2020/12/06 06:07:27;;;;;;;34.88;14.15;;;4.20;83.30;;;;;;5070062;28;20109;-67
2020/12/06 06:09:58;;;;;;;35.67;14.15;;;4.20;83.30;;;;;;5067689;28;20082;-68
2020/12/06 06:12:24;;;;;;;30.73;13.07;;;4.20;83.40;;;;;;5062635;28;20032;-69
2020/12/06 06:14:51;;;;;;;34.50;14.55;;;4.20;83.30;;;;;;5068796;28;20029;-68
2020/12/06 06:17:17;;;;;;;32.97;14.10;;;4.20;83.30;;;;;;5068148;28;20051;-68
2020/12/06 06:19:44;;;;;;;32.10;14.23;;;4.20;83.30;;;;;;5076560;28;20600;-68
2020/12/06 06:22:13;;;;;;;34.45;14.95;;;4.20;83.40;;;;;;5056616;28;20041;-68
2020/12/06 06:24:40;;;;;;;32.00;16.65;;;4.20;83.50;;;;;;5056093;28;20033;-68
2020/12/06 06:27:06;;;;;;;31.45;15.23;;;4.20;83.60;;;;;;5063473;28;20506;-68
2020/12/06 06:29:32;;;;;;;27.00;13.40;;;4.20;83.60;;;;;;5056249;28;20051;-68
2020/12/06 06:31:58;;;;;;;39.28;19.42;;;4.20;83.70;;;;;;5059832;28;21088;-68
2020/12/06 06:34:25;;;;;;;29.40;13.25;;;4.20;83.70;;;;;;5057400;28;20064;-68
2020/12/06 06:36:52;;;;;;;27.42;12.75;;;4.20;83.70;;;;;;5063250;28;20033;-67
2020/12/06 06:39:20;;;;;;;28.95;15.10;;;4.30;83.80;;;;;;5049895;28;20055;-69
2020/12/06 06:41:59;;;;;;;30.73;14.02;;;4.30;83.90;;;;;;5054185;28;20039;-68
2020/12/06 06:44:26;;;;;;;29.13;12.73;;;4.30;83.90;;;;;;5038597;28;20530;-68
2020/12/06 06:46:51;;;;;;;32.75;14.35;;;4.30;83.60;;;;;;5041227;28;20492;-68
2020/12/06 06:49:19;;;;;;;29.08;13.25;;;4.40;83.60;;;;;;5046391;28;20043;-69
2020/12/06 06:51:54;;;;;;;25.63;12.60;;;4.40;83.60;;;;;;5044100;28;20041;-67
2020/12/06 06:54:29;;;;;;;27.23;12.45;;;4.40;83.50;;;;;;5046375;28;20136;-68
2020/12/06 06:56:56;;;;;;;26.50;11.55;;;4.40;83.40;;;;;;5042504;28;20058;-69
2020/12/06 06:59:44;;;;;;;29.05;13.82;;;4.40;83.20;;;;;;5042912;28;20033;-68
2020/12/06 07:02:20;;;;;;;27.38;13.15;;;4.50;83.50;;;;;;5048784;28;20032;-67
2020/12/06 07:04:47;;;;;;;32.05;13.43;;;4.40;83.20;;;;;;5035123;28;20036;-68
2020/12/06 07:07:14;;;;;;;31.70;13.43;;;4.50;83.20;;;;;;5045705;28;20498;-68
2020/12/06 07:09:40;;;;;;;28.60;12.82;;;4.50;83.20;;;;;;5046584;28;20127;-66
2020/12/06 07:12:10;;;;;;;39.63;15.75;;;4.50;83.10;;;;;;5045865;28;21355;-68
2020/12/06 07:14:35;;;;;;;41.25;17.63;;;4.50;83.10;;;;;;5048148;28;20037;-68
2020/12/06 07:17:01;;;;;;;43.15;17.92;;;4.50;82.90;;;;;;5052315;28;20078;-68
2020/12/06 07:19:27;;;;;;;45.47;18.20;;;4.50;82.80;;;;;;5048990;28;20599;-68
2020/12/06 07:21:53;;;;;;;35.90;16.42;;;4.50;82.80;;;;;;5049476;28;20028;-68
2020/12/06 07:24:19;;;;;;;33.33;13.38;;;4.40;82.80;;;;;;5048877;28;20382;-68
2020/12/06 07:26:46;;;;;;;26.77;12.60;;;4.40;82.80;;;;;;5046325;28;20584;-68
2020/12/06 07:29:13;;;;;;;25.83;11.90;;;4.40;83.00;;;;;;5047853;28;20119;-69
2020/12/06 07:31:39;;;;;;;24.77;11.43;;;4.40;83.00;;;;;;5049167;28;20044;-68
2020/12/06 07:34:05;;;;;;;26.42;10.52;;;4.40;83.00;;;;;;5045882;28;20052;-68
2020/12/06 07:36:35;;;;;;;23.90;10.45;;;4.40;83.00;;;;;;5040002;28;20095;-67
2020/12/06 07:39:15;;;;;;;26.42;10.50;;;4.40;83.00;;;;;;5052736;28;20078;-68
2020/12/06 07:41:59;;;;;;;23.50;10.05;;;4.40;83.20;;;;;;5060194;28;20083;-69
2020/12/06 07:44:24;;;;;;;23.95;10.48;;;4.40;83.20;;;;;;5062154;28;20029;-69
2020/12/06 07:47:00;;;;;;;28.20;12.13;;;4.40;83.10;;;;;;5062758;28;20451;-68
2020/12/06 07:49:25;;;;;;;28.17;12.10;;;4.40;83.20;;;;;;5062216;28;20127;-67
2020/12/06 07:51:51;;;;;;;30.02;13.00;;;4.40;83.10;;;;;;5063568;28;20112;-68
2020/12/06 07:54:17;;;;;;;33.85;19.35;;;4.40;83.20;;;;;;5076649;28;20373;-69
2020/12/06 07:56:49;;;;;;;36.47;19.40;;;4.40;83.30;;;;;;5056727;28;20138;-67
2020/12/06 07:59:25;;;;;;;28.45;15.07;;;4.40;83.40;;;;;;5064038;28;20032;-68
2020/12/06 08:01:53;;;;;;;24.80;11.23;;;4.40;83.50;;;;;;5066530;28;20021;-69
2020/12/06 08:04:31;;;;;;;20.48;9.85;;;4.40;83.50;;;;;;5060772;28;20503;-69
2020/12/06 08:07:09;;;;;;;22.77;9.90;;;4.40;83.60;;;;;;5065746;28;20054;-68
2020/12/06 08:09:38;;;;;;;18.50;8.93;;;4.40;83.60;;;;;;5068277;28;20025;-68
2020/12/06 08:12:06;;;;;;;19.13;9.25;;;4.40;83.50;;;;;;5063814;22;20535;-67
2020/12/06 08:14:32;;;;;;;18.60;8.80;;;4.50;83.50;;;;;;5039234;28;20446;-68
2020/12/06 08:16:59;;;;;;;26.98;14.82;;;4.50;83.50;;;;;;5043254;28;20025;-69
2020/12/06 08:19:25;;;;;;;22.90;11.93;;;4.40;83.40;;;;;;5039348;28;20025;-69
2020/12/06 08:21:51;;;;;;;18.88;10.18;;;4.50;83.50;;;;;;5036820;28;20734;-69
2020/12/06 08:24:28;;;;;;;17.83;9.15;;;4.50;83.50;;;;;;5023517;28;20750;-70
2020/12/06 08:26:54;;;;;;;18.80;9.73;;;4.50;83.70;;;;;;5030838;28;20033;-70
2020/12/06 08:29:20;;;;;;;19.20;9.77;;;4.50;83.70;;;;;;5028227;28;20026;-67
2020/12/06 08:31:48;;;;;;;21.77;11.45;;;4.50;83.70;;;;;;5024609;28;21041;-69
2020/12/06 08:34:17;;;;;;;20.80;10.65;;;4.50;83.70;;;;;;5032007;28;20029;-69
2020/12/06 08:36:43;;;;;;;18.33;9.45;;;4.50;83.70;;;;;;5029747;28;20132;-68
2020/12/06 08:39:16;;;;;;;19.65;10.32;;;4.50;83.70;;;;;;5031236;28;20033;-68
2020/12/06 08:41:42;;;;;;;22.60;12.48;;;4.50;83.80;;;;;;5027127;28;20062;-69
2020/12/06 08:44:08;;;;;;;29.92;18.83;;;4.60;83.90;;;;;;5028223;28;20053;-68
2020/12/06 08:46:34;;;;;;;18.90;12.23;;;4.60;83.90;;;;;;5029207;28;20049;-69
2020/12/06 08:49:01;;;;;;;17.25;9.30;;;4.60;83.90;;;;;;5026864;28;20037;-69
2020/12/06 08:51:39;;;;;;;16.50;9.60;;;4.70;83.90;;;;;;5025749;28;20053;-68
2020/12/06 08:54:08;;;;;;;22.52;11.43;;;4.70;83.90;;;;;;5028891;28;20568;-68
2020/12/06 08:56:38;;;;;;;21.38;11.98;;;4.70;83.90;;;;;;5031596;28;20038;-68
2020/12/06 08:59:11;;;;;;;17.13;10.38;;;4.70;83.80;;;;;;5022165;28;20132;-68
2020/12/06 09:01:54;;;;;;;17.27;10.02;;;4.80;83.80;;;;;;5030237;28;20079;-69
2020/12/06 09:04:21;;;;;;;22.10;12.38;;;4.80;83.90;;;;;;5027757;28;20026;-69
2020/12/06 09:06:47;;;;;;;19.48;11.27;;;4.80;83.60;;;;;;5027811;28;20300;-68
2020/12/06 09:09:13;;;;;;;18.13;9.05;;;4.80;83.60;;;;;;5027643;28;20045;-68
2020/12/06 09:11:39;;;;;;;16.65;10.55;;;4.80;83.70;;;;;;5024820;28;20034;-69
2020/12/06 09:14:04;;;;;;;22.30;11.75;;;4.80;83.70;;;;;;5024460;28;20032;-69
2020/12/06 09:16:30;;;;;;;23.30;12.43;;;4.80;83.60;;;;;;5031097;28;20037;-68
2020/12/06 09:18:56;;;;;;;26.08;13.73;;;4.80;84.40;;;;;;5032046;28;20030;-69
2020/12/06 09:21:22;;;;;;;23.80;13.15;;;4.80;83.70;;;;;;5026077;28;20504;-69
2020/12/06 09:23:48;;;;;;;26.67;15.02;;;4.80;83.60;;;;;;5019811;28;20052;-69
2020/12/06 09:26:14;;;;;;;26.13;14.15;;;4.80;83.60;;;;;;5031377;28;20041;-69
2020/12/06 09:28:40;;;;;;;20.55;11.13;;;4.70;83.50;;;;;;5024310;28;20121;-69
2020/12/06 09:31:05;;;;;;;19.98;10.25;;;4.70;83.50;;;;;;5026686;28;20328;-69
2020/12/06 09:33:31;;;;;;;21.58;10.85;;;4.70;83.60;;;;;;5027929;28;20087;-68
2020/12/06 09:35:57;;;;;;;25.02;12.85;;;4.70;83.50;;;;;;5024423;28;20044;-68
2020/12/06 09:38:23;;;;;;;22.33;12.57;;;4.70;83.60;;;;;;5028586;28;20057;-68
2020/12/06 09:40:49;;;;;;;25.52;13.10;;;4.70;83.70;;;;;;5029620;28;20049;-68
2020/12/06 09:43:15;;;;;;;23.15;12.48;;;4.70;83.70;;;;;;5033417;28;20033;-67
2020/12/06 09:45:42;;;;;;;23.48;13.18;;;4.70;83.80;;;;;;5026703;28;20531;-67
2020/12/06 09:48:08;;;;;;;29.77;17.83;;;4.70;83.90;;;;;;5021020;28;20029;-68
2020/12/06 09:50:33;;;;;;;26.38;14.68;;;4.70;83.90;;;;;;5025540;28;20040;-69
2020/12/06 09:52:59;;;;;;;25.50;15.32;;;4.60;84.00;;;;;;5030510;28;20116;-69
2020/12/06 09:55:25;;;;;;;21.17;12.35;;;4.70;84.20;;;;;;5021149;28;20456;-69
2020/12/06 09:57:50;;;;;;;21.52;12.18;;;4.70;84.20;;;;;;5025798;28;20124;-69
2020/12/06 10:00:17;;;;;;;21.98;11.57;;;4.70;84.20;;;;;;5029020;28;20053;-69
2020/12/06 10:02:43;;;;;;;20.48;12.27;;;4.70;84.20;;;;;;5025563;28;20029;-69
2020/12/06 10:05:09;;;;;;;21.50;12.10;;;4.70;84.00;;;;;;5029351;28;20030;-69
2020/12/06 10:07:35;;;;;;;23.85;13.35;;;4.70;84.80;;;;;;5026170;28;20045;-69
2020/12/06 10:10:00;;;;;;;23.02;13.23;;;4.70;84.00;;;;;;5026167;28;20034;-69
2020/12/06 10:12:26;;;;;;;21.80;12.52;;;4.70;84.00;;;;;;5023012;28;20060;-69
2020/12/06 10:14:51;;;;;;;19.10;11.00;;;4.70;84.20;;;;;;5027814;28;20034;-70
2020/12/06 10:17:17;;;;;;;20.73;11.68;;;4.70;84.20;;;;;;5029625;28;20029;-70
2020/12/06 10:19:44;;;;;;;20.70;11.82;;;4.70;84.10;;;;;;5026874;28;20080;-70
2020/12/06 10:22:09;;;;;;;34.75;16.52;;;4.70;84.00;;;;;;5024935;28;20033;-69
2020/12/06 10:24:35;;;;;;;19.58;11.05;;;4.70;84.00;;;;;;5022540;28;20252;-70
2020/12/06 10:27:00;;;;;;;20.95;10.27;;;4.70;84.10;;;;;;5026572;28;20033;-68
2020/12/06 10:29:26;;;;;;;18.15;10.60;;;4.70;84.20;;;;;;5022137;28;20049;-69
2020/12/06 10:31:53;;;;;;;18.88;10.70;;;4.70;84.20;;;;;;5018216;28;20546;-69
2020/12/06 10:34:22;;;;;;;19.88;11.13;;;4.70;84.20;;;;;;5028447;28;20112;-70
2020/12/06 10:36:51;;;;;;;45.03;20.77;;;4.70;84.20;;;;;;5027121;28;20033;-71
2020/12/06 10:39:18;;;;;;;25.55;12.82;;;4.80;84.20;;;;;;5023255;28;20099;-70
2020/12/06 10:41:48;;;;;;;32.88;17.48;;;4.80;84.10;;;;;;5028486;28;20060;-70
2020/12/06 10:44:13;;;;;;;28.10;14.40;;;4.80;84.20;;;;;;5024432;28;20489;-69
2020/12/06 10:46:39;;;;;;;22.45;12.80;;;4.80;84.20;;;;;;5030056;28;20068;-69
2020/12/06 10:49:05;;;;;;;21.98;12.23;;;4.80;84.00;;;;;;5029673;28;20463;-70
2020/12/06 10:51:30;;;;;;;22.80;12.63;;;4.80;84.00;;;;;;5022624;28;20111;-70
2020/12/06 10:53:56;;;;;;;19.90;11.43;;;4.80;83.90;;;;;;5019833;28;20033;-70
2020/12/06 10:56:21;;;;;;;22.58;12.48;;;4.90;84.00;;;;;;5026494;28;20500;-71
2020/12/06 10:58:48;;;;;;;21.30;12.90;;;4.80;84.00;;;;;;5027301;28;20575;-70
2020/12/06 11:01:14;;;;;;;23.13;13.60;;;4.80;84.00;;;;;;5020769;28;20026;-71
2020/12/06 11:03:40;;;;;;;21.33;12.70;;;4.90;84.00;;;;;;5026225;28;20041;-71
2020/12/06 11:06:05;;;;;;;21.60;12.63;;;4.90;84.00;;;;;;5027704;28;20116;-69
2020/12/06 11:08:31;;;;;;;21.25;11.98;;;4.80;84.00;;;;;;5026337;28;20033;-70
2020/12/06 11:10:57;;;;;;;20.27;11.23;;;4.90;84.20;;;;;;5023777;28;20136;-71
2020/12/06 11:13:22;;;;;;;19.17;10.60;;;4.90;84.20;;;;;;5027901;28;20029;-71
2020/12/06 11:15:48;;;;;;;17.48;10.32;;;4.90;84.30;;;;;;5029753;28;20390;-71
2020/12/06 11:18:13;;;;;;;16.50;9.93;;;4.90;84.40;;;;;;5027297;28;20044;-71
2020/12/06 11:20:39;;;;;;;16.55;9.40;;;4.90;84.20;;;;;;5024232;28;20045;-71
2020/12/06 11:23:05;;;;;;;18.40;10.75;;;5.00;84.20;;;;;;5027815;28;20140;-71
2020/12/06 11:25:30;;;;;;;18.67;10.32;;;5.00;84.20;;;;;;5020949;28;20460;-70
2020/12/06 11:27:56;;;;;;;17.15;10.15;;;5.00;84.00;;;;;;5029053;28;20125;-71
2020/12/06 11:30:22;;;;;;;17.85;9.60;;;5.00;84.00;;;;;;5027081;28;20030;-70
2020/12/06 11:32:47;;;;;;;16.70;8.93;;;5.00;84.40;;;;;;5032334;28;20492;-71
2020/12/06 11:35:13;;;;;;;15.63;8.80;;;5.00;83.90;;;;;;5035699;28;20033;-71
2020/12/06 11:37:39;;;;;;;14.82;9.18;;;5.00;83.90;;;;;;5032154;28;20033;-71
2020/12/06 11:40:04;;;;;;;17.40;9.25;;;5.00;83.90;;;;;;5035593;28;20030;-71
2020/12/06 11:42:30;;;;;;;13.80;8.27;;;5.00;83.90;;;;;;5025310;28;20038;-70
2020/12/06 11:44:56;;;;;;;14.02;8.07;;;5.00;83.90;;;;;;5035574;28;20124;-71
2020/12/06 11:47:22;;;;;;;15.35;8.20;;;5.10;83.90;;;;;;5038769;28;20040;-71
2020/12/06 11:49:48;;;;;;;16.08;8.35;;;5.10;83.90;;;;;;5037174;28;20041;-71
2020/12/06 11:52:13;;;;;;;13.43;8.05;;;5.10;84.00;;;;;;5026837;28;20037;-70
2020/12/06 11:54:39;;;;;;;13.35;7.75;;;5.10;83.90;;;;;;5034225;28;20108;-71
2020/12/06 11:57:05;;;;;;;10.88;6.90;;;5.10;83.80;;;;;;5035652;28;20401;-71
2020/12/06 11:59:30;;;;;;;11.77;7.20;;;5.10;83.80;;;;;;5035416;28;20045;-71
2020/12/06 12:01:56;;;;;;;9.90;6.63;;;5.10;83.70;;;;;;5025281;28;20407;-71
2020/12/06 12:04:23;;;;;;;10.07;6.85;;;5.10;83.70;;;;;;5035140;28;20034;-71
2020/12/06 12:06:49;;;;;;;10.27;6.68;;;5.10;83.70;;;;;;5035778;28;20087;-71
2020/12/06 12:09:14;;;;;;;8.93;5.93;;;5.20;83.70;;;;;;5035952;28;20053;-71
2020/12/06 12:11:40;;;;;;;7.80;5.38;;;5.20;83.70;;;;;;5025182;28;20408;-71
2020/12/06 12:14:06;;;;;;;6.45;4.72;;;5.20;84.00;;;;;;5034171;28;20080;-71
2020/12/06 12:16:32;;;;;;;8.93;5.18;;;5.20;83.50;;;;;;5032395;28;20045;-71
2020/12/06 12:19:05;;;;;;;6.85;4.85;;;5.20;83.60;;;;;;5033172;28;20040;-71
2020/12/06 12:21:31;;;;;;;7.18;4.60;;;5.20;83.50;;;;;;5043054;28;20033;-71
2020/12/06 12:23:57;;;;;;;9.40;5.30;;;5.20;83.50;;;;;;5037729;28;20107;-71
2020/12/06 12:26:23;;;;;;;6.65;5.00;;;5.20;83.50;;;;;;5034992;28;20488;-70
2020/12/06 12:28:51;;;;;;;8.55;5.18;;;5.20;83.60;;;;;;5039251;28;20041;-71
2020/12/06 12:31:17;;;;;;;7.38;5.93;;;5.20;83.70;;;;;;5040498;28;20128;-71
2020/12/06 12:33:43;;;;;;;5.93;4.60;;;5.20;83.70;;;;;;5048026;28;20332;-71
2020/12/06 12:36:09;;;;;;;7.78;5.72;;;5.30;83.70;;;;;;5034741;28;20052;-71
2020/12/06 12:38:34;;;;;;;4.90;4.13;;;5.30;83.70;;;;;;5034585;28;20492;-70